sensor_id;sensor_type;location;lat;lon;timestamp;temperature;humidity
23477;DHT22;11911;50.768;13.150;2022-09-30T04:02:04;6.60;96.30
23477;DHT22;11911;50.768;13.150;2022-09-30T04:04:31;6.60;96.30
23477;DHT22;11911;50.768;13.150;2022-09-30T04:06:56;6.60;96.30
23477;DHT22;11911;50.768;13.150;2022-09-30T04:09:22;6.60;96.30
23477;DHT22;11911;50.768;13.150;2022-09-30T04:11:47;6.60;96.30
23477;DHT22;11911;50.768;13.150;2022-09-30T04:14:13;6.60;96.30
23477;DHT22;11911;50.768;13.150;2022-09-30T04:16:39;6.70;96.30
23477;DHT22;11911;50.768;13.150;2022-09-30T04:19:04;6.70;96.30
23477;DHT22;11911;50.768;13.150;2022-09-30T04:21:30;6.70;96.30
23477;DHT22;11911;50.768;13.150;2022-09-30T04:23:55;6.60;96.30
23477;DHT22;11911;50.768;13.150;2022-09-30T04:26:21;6.60;96.30
23477;DHT22;11911;50.768;13.150;2022-09-30T04:28:47;6.70;96.30
23477;DHT22;11911;50.768;13.150;2022-09-30T04:31:13;6.70;96.30
23477;DHT22;11911;50.768;13.150;2022-09-30T04:33:39;6.60;96.30
23477;DHT22;11911;50.768;13.150;2022-09-30T04:36:05;6.60;96.30
23477;DHT22;11911;50.768;13.150;2022-09-30T04:38:31;6.60;96.30
23477;DHT22;11911;50.768;13.150;2022-09-30T05:10:41;6.50;96.30
23477;DHT22;11911;50.768;13.150;2022-09-30T05:13:06;6.50;96.30
23477;DHT22;11911;50.768;13.150;2022-09-30T05:15:33;6.50;96.30
23477;DHT22;11911;50.768;13.150;2022-09-30T05:17:59;6.50;96.30
23477;DHT22;11911;50.768;13.150;2022-09-30T05:20:24;6.40;96.30
23477;DHT22;11911;50.768;13.150;2022-09-30T05:22:56;6.50;96.30
23477;DHT22;11911;50.768;13.150;2022-09-30T05:25:22;6.50;96.30
23477;DHT22;11911;50.768;13.150;2022-09-30T05:27:49;6.50;96.30
23477;DHT22;11911;50.768;13.150;2022-09-30T05:30:14;6.50;96.30
23477;DHT22;11911;50.768;13.150;2022-09-30T05:32:40;6.60;96.30
23477;DHT22;11911;50.768;13.150;2022-09-30T05:35:06;6.60;96.30
23477;DHT22;11911;50.768;13.150;2022-09-30T05:37:33;6.60;96.30
23477;DHT22;11911;50.768;13.150;2022-09-30T05:39:58;6.70;96.30
23477;DHT22;11911;50.768;13.150;2022-09-30T05:42:25;6.70;96.30
23477;DHT22;11911;50.768;13.150;2022-09-30T05:44:51;6.80;96.30
23477;DHT22;11911;50.768;13.150;2022-09-30T05:47:16;7.00;96.30
23477;DHT22;11911;50.768;13.150;2022-09-30T05:49:42;7.10;96.30
23477;DHT22;11911;50.768;13.150;2022-09-30T05:52:07;7.30;96.30
23477;DHT22;11911;50.768;13.150;2022-09-30T05:54:33;7.50;96.30
23477;DHT22;11911;50.768;13.150;2022-09-30T05:56:58;7.80;96.30
23477;DHT22;11911;50.768;13.150;2022-09-30T05:59:25;8.10;96.30
23477;DHT22;11911;50.768;13.150;2022-09-30T06:19:58;8.50;96.30
23477;DHT22;11911;50.768;13.150;2022-09-30T06:22:24;8.30;96.30
23477;DHT22;11911;50.768;13.150;2022-09-30T06:24:51;8.20;96.30
23477;DHT22;11911;50.768;13.150;2022-09-30T06:27:17;8.10;96.30
23477;DHT22;11911;50.768;13.150;2022-09-30T06:29:42;8.10;96.30
23477;DHT22;11911;50.768;13.150;2022-09-30T06:32:08;8.00;96.30
23477;DHT22;11911;50.768;13.150;2022-09-30T06:34:33;8.10;96.30
23477;DHT22;11911;50.768;13.150;2022-09-30T06:36:59;8.10;96.30
23477;DHT22;11911;50.768;13.150;2022-09-30T06:39:25;8.20;96.30
23477;DHT22;11911;50.768;13.150;2022-09-30T06:41:52;8.40;96.30
23477;DHT22;11911;50.768;13.150;2022-09-30T06:44:17;8.60;96.30
23477;DHT22;11911;50.768;13.150;2022-09-30T06:46:43;8.70;96.30
23477;DHT22;11911;50.768;13.150;2022-09-30T06:49:08;8.90;96.30
23477;DHT22;11911;50.768;13.150;2022-09-30T06:51:34;9.00;96.30
23477;DHT22;11911;50.768;13.150;2022-09-30T06:54:00;9.00;96.30
23477;DHT22;11911;50.768;13.150;2022-09-30T06:56:26;9.20;96.30
23477;DHT22;11911;50.768;13.150;2022-09-30T06:58:52;9.30;96.30
23477;DHT22;11911;50.768;13.150;2022-09-30T07:01:18;9.40;96.30
23477;DHT22;11911;50.768;13.150;2022-09-30T07:03:45;9.50;96.30
23477;DHT22;11911;50.768;13.150;2022-09-30T07:06:12;9.60;96.30
23477;DHT22;11911;50.768;13.150;2022-09-30T07:08:38;9.60;96.30
23477;DHT22;11911;50.768;13.150;2022-09-30T07:11:08;9.60;96.30
23477;DHT22;11911;50.768;13.150;2022-09-30T07:13:42;9.50;96.30
23477;DHT22;11911;50.768;13.150;2022-09-30T07:16:11;9.60;96.30
23477;DHT22;11911;50.768;13.150;2022-09-30T07:18:38;9.70;96.30
23477;DHT22;11911;50.768;13.150;2022-09-30T07:21:06;9.80;96.30
23477;DHT22;11911;50.768;13.150;2022-09-30T07:23:32;9.90;96.30
23477;DHT22;11911;50.768;13.150;2022-09-30T07:26:00;10.00;96.30
23477;DHT22;11911;50.768;13.150;2022-09-30T07:28:34;10.10;96.30
23477;DHT22;11911;50.768;13.150;2022-09-30T07:31:05;10.10;96.30
23477;DHT22;11911;50.768;13.150;2022-09-30T07:33:31;10.20;96.30
23477;DHT22;11911;50.768;13.150;2022-09-30T07:35:59;10.40;96.30
23477;DHT22;11911;50.768;13.150;2022-09-30T07:38:27;10.50;96.30
23477;DHT22;11911;50.768;13.150;2022-09-30T07:40:55;10.40;96.30
23477;DHT22;11911;50.768;13.150;2022-09-30T07:43:23;10.50;96.30
23477;DHT22;11911;50.768;13.150;2022-09-30T07:45:49;10.50;96.30
23477;DHT22;11911;50.768;13.150;2022-09-30T07:48:16;10.60;96.30
23477;DHT22;11911;50.768;13.150;2022-09-30T07:51:02;10.60;96.30
23477;DHT22;11911;50.768;13.150;2022-09-30T07:53:27;10.80;96.30
23477;DHT22;11911;50.768;13.150;2022-09-30T07:55:53;11.00;96.30
23477;DHT22;11911;50.768;13.150;2022-09-30T07:58:18;11.40;96.30
23477;DHT22;11911;50.768;13.150;2022-09-30T08:00:46;11.60;96.30
23477;DHT22;11911;50.768;13.150;2022-09-30T08:03:14;11.80;96.30
23477;DHT22;11911;50.768;13.150;2022-09-30T08:05:41;12.00;96.30
23477;DHT22;11911;50.768;13.150;2022-09-30T08:08:13;12.20;96.30
23477;DHT22;11911;50.768;13.150;2022-09-30T08:10:39;12.50;96.30
23477;DHT22;11911;50.768;13.150;2022-09-30T08:13:05;12.40;96.30
23477;DHT22;11911;50.768;13.150;2022-09-30T08:15:31;12.40;96.30
23477;DHT22;11911;50.768;13.150;2022-09-30T08:17:56;12.60;96.30
23477;DHT22;11911;50.768;13.150;2022-09-30T08:20:22;12.60;96.30
23477;DHT22;11911;50.768;13.150;2022-09-30T08:22:51;12.70;96.30
23477;DHT22;11911;50.768;13.150;2022-09-30T08:25:17;12.40;96.30
23477;DHT22;11911;50.768;13.150;2022-09-30T08:27:43;12.50;96.30
23477;DHT22;11911;50.768;13.150;2022-09-30T08:30:08;12.60;96.30
23477;DHT22;11911;50.768;13.150;2022-09-30T08:32:34;12.90;96.30
23477;DHT22;11911;50.768;13.150;2022-09-30T08:35:00;13.30;96.30
23477;DHT22;11911;50.768;13.150;2022-09-30T08:37:25;13.70;96.30
23477;DHT22;11911;50.768;13.150;2022-09-30T08:39:51;14.70;96.30
23477;DHT22;11911;50.768;13.150;2022-09-30T08:50:48;18.70;96.30
23477;DHT22;11911;50.768;13.150;2022-09-30T08:53:37;19.20;96.30
23477;DHT22;11911;50.768;13.150;2022-09-30T08:56:04;19.70;96.30
23477;DHT22;11911;50.768;13.150;2022-09-30T08:58:32;19.70;96.30
23477;DHT22;11911;50.768;13.150;2022-09-30T09:01:09;20.20;92.30
23477;DHT22;11911;50.768;13.150;2022-09-30T09:03:39;19.80;91.70
23477;DHT22;11911;50.768;13.150;2022-09-30T09:11:48;19.30;96.00
23477;DHT22;11911;50.768;13.150;2022-09-30T09:15:02;20.10;96.10
23477;DHT22;11911;50.768;13.150;2022-09-30T09:19:46;21.40;87.30
23477;DHT22;11911;50.768;13.150;2022-09-30T09:22:12;21.80;87.70
23477;DHT22;11911;50.768;13.150;2022-09-30T09:24:45;22.20;82.70
23477;DHT22;11911;50.768;13.150;2022-09-30T09:32:30;21.50;83.50
23477;DHT22;11911;50.768;13.150;2022-09-30T09:35:13;20.60;87.40
23477;DHT22;11911;50.768;13.150;2022-09-30T09:51:44;16.10;96.30
23477;DHT22;11911;50.768;13.150;2022-09-30T09:54:12;15.80;96.30
23477;DHT22;11911;50.768;13.150;2022-09-30T09:56:39;15.30;96.30
23477;DHT22;11911;50.768;13.150;2022-09-30T09:59:09;15.00;96.30
23477;DHT22;11911;50.768;13.150;2022-09-30T10:01:42;15.00;96.30
23477;DHT22;11911;50.768;13.150;2022-09-30T10:04:18;14.90;96.30
23477;DHT22;11911;50.768;13.150;2022-09-30T10:06:57;14.80;96.30
23477;DHT22;11911;50.768;13.150;2022-09-30T10:09:36;14.80;96.30
23477;DHT22;11911;50.768;13.150;2022-09-30T10:14:32;15.10;96.30
23477;DHT22;11911;50.768;13.150;2022-09-30T10:17:00;15.20;96.30
23477;DHT22;11911;50.768;13.150;2022-09-30T10:19:28;16.40;96.30
23477;DHT22;11911;50.768;13.150;2022-09-30T10:24:37;18.20;94.30
23477;DHT22;11911;50.768;13.150;2022-09-30T10:27:04;17.90;93.90
23477;DHT22;11911;50.768;13.150;2022-09-30T10:29:49;16.80;94.40
23477;DHT22;11911;50.768;13.150;2022-09-30T10:32:14;17.60;96.30
23477;DHT22;11911;50.768;13.150;2022-09-30T10:34:42;16.30;94.30
23477;DHT22;11911;50.768;13.150;2022-09-30T10:37:17;15.30;96.30
23477;DHT22;11911;50.768;13.150;2022-09-30T10:39:55;16.00;96.30
23477;DHT22;11911;50.768;13.150;2022-09-30T10:42:26;17.00;96.30
23477;DHT22;11911;50.768;13.150;2022-09-30T10:44:57;17.20;96.30
23477;DHT22;11911;50.768;13.150;2022-09-30T10:47:26;16.90;94.60
23477;DHT22;11911;50.768;13.150;2022-09-30T10:49:56;17.60;96.20
23477;DHT22;11911;50.768;13.150;2022-09-30T10:52:30;17.90;96.30
23477;DHT22;11911;50.768;13.150;2022-09-30T10:54:58;18.10;95.10
23477;DHT22;11911;50.768;13.150;2022-09-30T10:57:33;17.60;94.60
23477;DHT22;11911;50.768;13.150;2022-09-30T11:00:10;17.10;96.30
23477;DHT22;11911;50.768;13.150;2022-09-30T11:05:11;16.60;96.30
23477;DHT22;11911;50.768;13.150;2022-09-30T11:13:22;16.00;96.30
23477;DHT22;11911;50.768;13.150;2022-09-30T11:18:44;16.10;96.30
23477;DHT22;11911;50.768;13.150;2022-09-30T11:21:28;16.30;96.30
23477;DHT22;11911;50.768;13.150;2022-09-30T11:23:59;16.30;96.30
23477;DHT22;11911;50.768;13.150;2022-09-30T11:31:50;18.10;96.30
23477;DHT22;11911;50.768;13.150;2022-09-30T11:34:55;18.60;96.30
23477;DHT22;11911;50.768;13.150;2022-09-30T11:37:39;19.20;87.90
23477;DHT22;11911;50.768;13.150;2022-09-30T11:43:31;19.50;88.00
23477;DHT22;11911;50.768;13.150;2022-09-30T11:46:23;19.70;90.20
23477;DHT22;11911;50.768;13.150;2022-09-30T11:49:27;19.70;90.00
23477;DHT22;11911;50.768;13.150;2022-09-30T11:52:15;19.80;84.90
23477;DHT22;11911;50.768;13.150;2022-09-30T11:57:34;18.20;89.00
23477;DHT22;11911;50.768;13.150;2022-09-30T12:00:12;18.10;88.10
23477;DHT22;11911;50.768;13.150;2022-09-30T12:02:53;17.80;88.80
23477;DHT22;11911;50.768;13.150;2022-09-30T12:07:50;17.00;88.40
23477;DHT22;11911;50.768;13.150;2022-09-30T12:10:24;16.70;90.10
23477;DHT22;11911;50.768;13.150;2022-09-30T12:13:00;16.70;92.40
23477;DHT22;11911;50.768;13.150;2022-09-30T12:15:27;16.80;92.80
23477;DHT22;11911;50.768;13.150;2022-09-30T12:18:10;17.30;92.20
23477;DHT22;11911;50.768;13.150;2022-09-30T12:21:00;17.20;90.60
23477;DHT22;11911;50.768;13.150;2022-09-30T12:23:31;16.60;90.80
23477;DHT22;11911;50.768;13.150;2022-09-30T12:26:00;16.30;91.70
23477;DHT22;11911;50.768;13.150;2022-09-30T12:28:45;16.20;94.70
23477;DHT22;11911;50.768;13.150;2022-09-30T14:32:18;14.30;96.30
23477;DHT22;11911;50.768;13.150;2022-09-30T14:34:45;14.30;96.30
23477;DHT22;11911;50.768;13.150;2022-09-30T14:37:25;14.40;96.30
23477;DHT22;11911;50.768;13.150;2022-09-30T14:39:51;14.40;96.30
23477;DHT22;11911;50.768;13.150;2022-09-30T14:42:43;14.40;96.30
23477;DHT22;11911;50.768;13.150;2022-09-30T14:45:37;14.40;96.30
23477;DHT22;11911;50.768;13.150;2022-09-30T14:48:20;14.40;96.30
23477;DHT22;11911;50.768;13.150;2022-09-30T14:50:58;14.40;96.30
23477;DHT22;11911;50.768;13.150;2022-09-30T14:53:27;14.30;96.30
23477;DHT22;11911;50.768;13.150;2022-09-30T14:55:53;14.20;96.30
23477;DHT22;11911;50.768;13.150;2022-09-30T14:58:22;14.10;96.30
23477;DHT22;11911;50.768;13.150;2022-09-30T15:01:04;14.10;96.30
23477;DHT22;11911;50.768;13.150;2022-09-30T15:03:39;14.30;96.30
23477;DHT22;11911;50.768;13.150;2022-09-30T15:06:19;14.50;96.30
23477;DHT22;11911;50.768;13.150;2022-09-30T15:08:46;14.70;96.30
23477;DHT22;11911;50.768;13.150;2022-09-30T15:11:20;14.70;96.30
23477;DHT22;11911;50.768;13.150;2022-09-30T15:13:50;14.80;96.30
23477;DHT22;11911;50.768;13.150;2022-09-30T15:16:24;14.70;96.30
23477;DHT22;11911;50.768;13.150;2022-09-30T15:18:51;14.70;96.30
23477;DHT22;11911;50.768;13.150;2022-09-30T15:21:18;14.70;96.30
23477;DHT22;11911;50.768;13.150;2022-09-30T15:23:47;14.80;96.30
23477;DHT22;11911;50.768;13.150;2022-09-30T15:26:17;14.60;96.30
23477;DHT22;11911;50.768;13.150;2022-09-30T15:28:44;14.40;96.30
23477;DHT22;11911;50.768;13.150;2022-09-30T15:31:23;14.30;96.30
23477;DHT22;11911;50.768;13.150;2022-09-30T15:34:18;14.30;96.30
23477;DHT22;11911;50.768;13.150;2022-09-30T15:36:54;14.10;96.30
23477;DHT22;11911;50.768;13.150;2022-09-30T15:39:24;14.00;96.30
23477;DHT22;11911;50.768;13.150;2022-09-30T15:42:13;13.90;96.30
23477;DHT22;11911;50.768;13.150;2022-09-30T15:44:51;13.70;96.30
23477;DHT22;11911;50.768;13.150;2022-09-30T15:47:17;13.60;96.30
23477;DHT22;11911;50.768;13.150;2022-09-30T15:49:46;13.50;96.30
23477;DHT22;11911;50.768;13.150;2022-09-30T15:54:44;13.30;96.30
23477;DHT22;11911;50.768;13.150;2022-09-30T16:00:05;13.00;96.30
23477;DHT22;11911;50.768;13.150;2022-09-30T16:02:33;12.90;96.30
23477;DHT22;11911;50.768;13.150;2022-09-30T16:05:00;12.70;96.30
23477;DHT22;11911;50.768;13.150;2022-09-30T16:07:27;12.30;96.30
23477;DHT22;11911;50.768;13.150;2022-09-30T16:09:55;12.00;96.30
23477;DHT22;11911;50.768;13.150;2022-09-30T16:12:31;11.90;96.30
23477;DHT22;11911;50.768;13.150;2022-09-30T16:15:11;11.70;96.30
23477;DHT22;11911;50.768;13.150;2022-09-30T16:17:44;11.60;96.30
23477;DHT22;11911;50.768;13.150;2022-09-30T16:27:39;11.50;96.30
23477;DHT22;11911;50.768;13.150;2022-09-30T16:30:05;11.50;96.30
23477;DHT22;11911;50.768;13.150;2022-09-30T16:32:35;11.50;96.30
23477;DHT22;11911;50.768;13.150;2022-09-30T16:35:02;11.50;96.30
23477;DHT22;11911;50.768;13.150;2022-09-30T16:37:28;11.40;96.30
23477;DHT22;11911;50.768;13.150;2022-09-30T16:39:54;11.20;96.30
23477;DHT22;11911;50.768;13.150;2022-09-30T16:42:21;11.20;96.30
23477;DHT22;11911;50.768;13.150;2022-09-30T16:44:46;10.90;96.30
23477;DHT22;11911;50.768;13.150;2022-09-30T16:47:14;10.80;96.30
23477;DHT22;11911;50.768;13.150;2022-09-30T16:49:40;10.60;96.30
23477;DHT22;11911;50.768;13.150;2022-09-30T16:52:09;10.50;96.30
23477;DHT22;11911;50.768;13.150;2022-09-30T16:54:36;10.40;96.30
23477;DHT22;11911;50.768;13.150;2022-09-30T16:57:02;10.20;96.30
23477;DHT22;11911;50.768;13.150;2022-09-30T17:01:57;9.80;96.30
23477;DHT22;11911;50.768;13.150;2022-09-30T17:04:23;9.90;96.30
23477;DHT22;11911;50.768;13.150;2022-09-30T17:06:49;9.80;96.30
23477;DHT22;11911;50.768;13.150;2022-09-30T17:09:15;9.70;96.30
23477;DHT22;11911;50.768;13.150;2022-09-30T17:14:06;9.50;96.30
23477;DHT22;11911;50.768;13.150;2022-09-30T17:16:32;9.40;96.30
23477;DHT22;11911;50.768;13.150;2022-09-30T17:18:58;9.40;96.30
23477;DHT22;11911;50.768;13.150;2022-09-30T17:21:25;9.40;96.30
23477;DHT22;11911;50.768;13.150;2022-09-30T17:23:51;9.40;96.30
23477;DHT22;11911;50.768;13.150;2022-09-30T17:26:17;9.30;96.30
23477;DHT22;11911;50.768;13.150;2022-09-30T17:28:43;9.10;96.30
23477;DHT22;11911;50.768;13.150;2022-09-30T17:31:10;8.90;96.30
23477;DHT22;11911;50.768;13.150;2022-09-30T17:33:37;8.80;96.30
23477;DHT22;11911;50.768;13.150;2022-09-30T17:36:06;8.70;96.30
23477;DHT22;11911;50.768;13.150;2022-09-30T17:38:33;8.60;96.30
23477;DHT22;11911;50.768;13.150;2022-09-30T17:40:59;8.50;96.30
23477;DHT22;11911;50.768;13.150;2022-09-30T17:43:43;8.60;96.30
23477;DHT22;11911;50.768;13.150;2022-09-30T17:46:13;8.60;96.30
23477;DHT22;11911;50.768;13.150;2022-09-30T17:48:46;8.70;96.30
23477;DHT22;11911;50.768;13.150;2022-09-30T17:51:13;8.70;96.30
23477;DHT22;11911;50.768;13.150;2022-09-30T17:53:41;8.80;96.30
23477;DHT22;11911;50.768;13.150;2022-09-30T17:56:14;8.80;96.30
23477;DHT22;11911;50.768;13.150;2022-09-30T17:58:41;8.90;96.30
23477;DHT22;11911;50.768;13.150;2022-09-30T18:45:04;8.40;96.30
23477;DHT22;11911;50.768;13.150;2022-09-30T18:47:30;8.40;96.30
23477;DHT22;11911;50.768;13.150;2022-09-30T18:49:57;8.40;96.30
23477;DHT22;11911;50.768;13.150;2022-09-30T18:52:23;8.40;96.30
23477;DHT22;11911;50.768;13.150;2022-09-30T18:54:48;8.40;96.30
23477;DHT22;11911;50.768;13.150;2022-09-30T18:57:15;8.40;96.30
23477;DHT22;11911;50.768;13.150;2022-09-30T18:59:40;8.30;96.30
23477;DHT22;11911;50.768;13.150;2022-09-30T19:02:06;8.30;96.30
23477;DHT22;11911;50.768;13.150;2022-09-30T19:04:34;8.20;96.30
23477;DHT22;11911;50.768;13.150;2022-09-30T19:06:59;8.20;96.30
23477;DHT22;11911;50.768;13.150;2022-09-30T19:09:25;8.30;96.30
23477;DHT22;11911;50.768;13.150;2022-09-30T19:11:51;8.30;96.30
23477;DHT22;11911;50.768;13.150;2022-09-30T19:14:17;8.20;96.30
23477;DHT22;11911;50.768;13.150;2022-09-30T19:16:43;8.10;96.30
23477;DHT22;11911;50.768;13.150;2022-09-30T19:19:09;8.00;96.30
23477;DHT22;11911;50.768;13.150;2022-09-30T19:21:38;7.90;96.30
23477;DHT22;11911;50.768;13.150;2022-09-30T19:24:06;8.00;96.30
23477;DHT22;11911;50.768;13.150;2022-09-30T19:26:33;8.00;96.30
23477;DHT22;11911;50.768;13.150;2022-09-30T19:29:01;8.00;96.30
23477;DHT22;11911;50.768;13.150;2022-09-30T19:31:27;8.10;96.30
23477;DHT22;11911;50.768;13.150;2022-09-30T19:33:54;8.10;96.30
23477;DHT22;11911;50.768;13.150;2022-09-30T19:36:21;8.20;96.30
23477;DHT22;11911;50.768;13.150;2022-09-30T19:38:47;8.30;96.30
23477;DHT22;11911;50.768;13.150;2022-09-30T19:41:14;8.30;96.30
23477;DHT22;11911;50.768;13.150;2022-09-30T19:43:41;8.40;96.30
23477;DHT22;11911;50.768;13.150;2022-09-30T19:46:09;8.40;96.30
23477;DHT22;11911;50.768;13.150;2022-09-30T19:48:35;8.50;96.30
23477;DHT22;11911;50.768;13.150;2022-09-30T19:51:04;8.50;96.30
23477;DHT22;11911;50.768;13.150;2022-09-30T19:53:32;8.60;96.30
23477;DHT22;11911;50.768;13.150;2022-09-30T19:56:18;8.60;96.30
23477;DHT22;11911;50.768;13.150;2022-09-30T19:58:46;8.50;96.30
23477;DHT22;11911;50.768;13.150;2022-09-30T20:01:13;8.40;96.30
23477;DHT22;11911;50.768;13.150;2022-09-30T20:03:40;8.20;96.30
23477;DHT22;11911;50.768;13.150;2022-09-30T20:06:11;8.10;96.30
23477;DHT22;11911;50.768;13.150;2022-09-30T20:08:41;8.00;96.30
23477;DHT22;11911;50.768;13.150;2022-09-30T20:11:12;8.10;96.30
23477;DHT22;11911;50.768;13.150;2022-09-30T20:13:38;8.20;96.30
23477;DHT22;11911;50.768;13.150;2022-09-30T20:16:07;8.30;96.30
23477;DHT22;11911;50.768;13.150;2022-09-30T20:18:34;8.40;96.30
23477;DHT22;11911;50.768;13.150;2022-09-30T20:21:00;8.50;96.30
23477;DHT22;11911;50.768;13.150;2022-09-30T20:23:26;8.60;96.30
23477;DHT22;11911;50.768;13.150;2022-09-30T20:25:53;8.60;96.30
23477;DHT22;11911;50.768;13.150;2022-09-30T20:28:20;8.60;96.30
23477;DHT22;11911;50.768;13.150;2022-09-30T20:30:46;8.50;96.30
23477;DHT22;11911;50.768;13.150;2022-09-30T20:33:14;8.50;96.30
23477;DHT22;11911;50.768;13.150;2022-09-30T20:35:40;8.60;96.30
23477;DHT22;11911;50.768;13.150;2022-09-30T20:38:10;8.60;96.30
23477;DHT22;11911;50.768;13.150;2022-09-30T20:40:36;8.60;96.30
23477;DHT22;11911;50.768;13.150;2022-09-30T20:43:01;8.60;96.30
23477;DHT22;11911;50.768;13.150;2022-09-30T20:45:28;8.60;96.30
23477;DHT22;11911;50.768;13.150;2022-09-30T20:47:54;8.60;96.30
23477;DHT22;11911;50.768;13.150;2022-09-30T20:50:20;8.50;96.30
23477;DHT22;11911;50.768;13.150;2022-09-30T20:53:17;8.40;96.30
23477;DHT22;11911;50.768;13.150;2022-09-30T20:55:43;8.40;96.30
23477;DHT22;11911;50.768;13.150;2022-09-30T20:58:09;8.20;96.30
23477;DHT22;11911;50.768;13.150;2022-09-30T21:00:38;8.00;96.30
23477;DHT22;11911;50.768;13.150;2022-09-30T21:03:05;7.90;96.30
23477;DHT22;11911;50.768;13.150;2022-09-30T21:05:32;7.70;96.30
23477;DHT22;11911;50.768;13.150;2022-09-30T21:07:58;7.70;96.30
23477;DHT22;11911;50.768;13.150;2022-09-30T21:10:29;7.70;96.30
23477;DHT22;11911;50.768;13.150;2022-09-30T21:12:56;7.70;96.30
23477;DHT22;11911;50.768;13.150;2022-09-30T21:15:24;7.70;96.30
23477;DHT22;11911;50.768;13.150;2022-09-30T21:17:51;7.50;96.30
23477;DHT22;11911;50.768;13.150;2022-09-30T21:20:21;7.40;96.30
23477;DHT22;11911;50.768;13.150;2022-09-30T21:22:47;7.20;96.30
23477;DHT22;11911;50.768;13.150;2022-09-30T21:25:13;7.20;96.30
23477;DHT22;11911;50.768;13.150;2022-09-30T21:27:39;7.40;96.30
23477;DHT22;11911;50.768;13.150;2022-09-30T21:30:05;7.50;96.30
23477;DHT22;11911;50.768;13.150;2022-09-30T21:32:32;7.60;96.30
23477;DHT22;11911;50.768;13.150;2022-09-30T21:34:58;7.70;96.30
23477;DHT22;11911;50.768;13.150;2022-09-30T21:37:24;7.80;96.30
23477;DHT22;11911;50.768;13.150;2022-09-30T21:39:50;7.70;96.30
23477;DHT22;11911;50.768;13.150;2022-09-30T21:42:15;7.40;96.30
23477;DHT22;11911;50.768;13.150;2022-09-30T21:44:41;7.10;96.30
23477;DHT22;11911;50.768;13.150;2022-09-30T21:47:06;6.90;96.30
23477;DHT22;11911;50.768;13.150;2022-09-30T21:49:32;6.70;96.30
23477;DHT22;11911;50.768;13.150;2022-09-30T21:51:57;6.40;96.30
23477;DHT22;11911;50.768;13.150;2022-09-30T21:54:23;6.30;96.30
23477;DHT22;11911;50.768;13.150;2022-09-30T21:56:48;6.20;96.30
23477;DHT22;11911;50.768;13.150;2022-09-30T21:59:15;6.10;96.30
23477;DHT22;11911;50.768;13.150;2022-09-30T22:01:40;6.00;96.30
23477;DHT22;11911;50.768;13.150;2022-09-30T22:04:06;5.90;96.30
23477;DHT22;11911;50.768;13.150;2022-09-30T22:06:32;5.80;96.30
23477;DHT22;11911;50.768;13.150;2022-09-30T22:08:57;5.80;96.30
23477;DHT22;11911;50.768;13.150;2022-09-30T22:11:27;5.80;96.30
23477;DHT22;11911;50.768;13.150;2022-09-30T22:13:55;5.70;96.30
23477;DHT22;11911;50.768;13.150;2022-09-30T22:16:26;5.60;96.30
23477;DHT22;11911;50.768;13.150;2022-09-30T22:18:57;5.50;96.30
23477;DHT22;11911;50.768;13.150;2022-09-30T22:21:28;5.30;96.30
23477;DHT22;11911;50.768;13.150;2022-09-30T22:23:56;5.20;96.30
23477;DHT22;11911;50.768;13.150;2022-09-30T22:26:22;5.20;96.30
23477;DHT22;11911;50.768;13.150;2022-09-30T22:28:53;5.60;96.30
23477;DHT22;11911;50.768;13.150;2022-09-30T22:31:22;6.20;96.30
23477;DHT22;11911;50.768;13.150;2022-09-30T22:33:50;6.40;96.30
23477;DHT22;11911;50.768;13.150;2022-09-30T22:36:34;6.30;96.30
23477;DHT22;11911;50.768;13.150;2022-09-30T22:39:19;6.10;96.30
23477;DHT22;11911;50.768;13.150;2022-09-30T22:41:45;6.00;96.30
23477;DHT22;11911;50.768;13.150;2022-09-30T22:44:11;5.90;96.30
23477;DHT22;11911;50.768;13.150;2022-09-30T22:46:37;5.80;96.30
23477;DHT22;11911;50.768;13.150;2022-09-30T22:49:04;5.80;96.30
23477;DHT22;11911;50.768;13.150;2022-09-30T22:51:30;5.90;96.30
23477;DHT22;11911;50.768;13.150;2022-09-30T22:53:58;6.10;96.30
23477;DHT22;11911;50.768;13.150;2022-09-30T22:56:24;6.40;96.30
23477;DHT22;11911;50.768;13.150;2022-09-30T22:58:50;6.50;96.30
23477;DHT22;11911;50.768;13.150;2022-09-30T23:01:16;6.20;96.30
23477;DHT22;11911;50.768;13.150;2022-09-30T23:03:41;6.00;96.30
23477;DHT22;11911;50.768;13.150;2022-09-30T23:06:07;5.90;96.30
23477;DHT22;11911;50.768;13.150;2022-09-30T23:08:37;5.80;96.30
23477;DHT22;11911;50.768;13.150;2022-09-30T23:11:13;5.70;96.30
23477;DHT22;11911;50.768;13.150;2022-09-30T23:13:41;5.60;96.30
23477;DHT22;11911;50.768;13.150;2022-09-30T23:16:07;5.40;96.30
23477;DHT22;11911;50.768;13.150;2022-09-30T23:18:33;5.30;96.30
23477;DHT22;11911;50.768;13.150;2022-09-30T23:21:04;5.30;96.30
23477;DHT22;11911;50.768;13.150;2022-09-30T23:23:34;5.20;96.30
23477;DHT22;11911;50.768;13.150;2022-09-30T23:26:05;5.10;96.30
23477;DHT22;11911;50.768;13.150;2022-09-30T23:28:31;5.00;96.30
23477;DHT22;11911;50.768;13.150;2022-09-30T23:31:02;4.90;96.30
23477;DHT22;11911;50.768;13.150;2022-09-30T23:33:28;4.80;96.30
23477;DHT22;11911;50.768;13.150;2022-09-30T23:35:54;4.90;96.30
23477;DHT22;11911;50.768;13.150;2022-09-30T23:38:27;4.90;96.30
23477;DHT22;11911;50.768;13.150;2022-09-30T23:40:53;4.90;96.30
23477;DHT22;11911;50.768;13.150;2022-09-30T23:43:26;4.80;96.30
23477;DHT22;11911;50.768;13.150;2022-09-30T23:45:52;4.80;96.30
23477;DHT22;11911;50.768;13.150;2022-09-30T23:48:18;4.90;96.30
23477;DHT22;11911;50.768;13.150;2022-09-30T23:50:44;5.10;96.30
23477;DHT22;11911;50.768;13.150;2022-09-30T23:53:13;5.20;96.30
23477;DHT22;11911;50.768;13.150;2022-09-30T23:55:38;5.30;96.30
23477;DHT22;11911;50.768;13.150;2022-09-30T23:58:04;5.40;96.30
